sensor_id;sensor_type;location;lat;lon;timestamp;temperature;humidity
67050;DHT22;53955;52.442;13.284;2023-06-14T00:00:33;18.80;35.50
67050;DHT22;53955;52.442;13.284;2023-06-14T00:03:01;18.70;35.60
67050;DHT22;53955;52.442;13.284;2023-06-14T00:05:29;18.80;36.00
67050;DHT22;53955;52.442;13.284;2023-06-14T00:07:58;18.80;35.50
67050;DHT22;53955;52.442;13.284;2023-06-14T00:10:25;18.90;36.00
67050;DHT22;53955;52.442;13.284;2023-06-14T00:12:57;19.10;35.50
67050;DHT22;53955;52.442;13.284;2023-06-14T00:15:25;19.00;35.50
67050;DHT22;53955;52.442;13.284;2023-06-14T00:17:51;18.70;36.50
67050;DHT22;53955;52.442;13.284;2023-06-14T00:20:18;18.60;36.70
67050;DHT22;53955;52.442;13.284;2023-06-14T00:22:44;18.60;36.90
67050;DHT22;53955;52.442;13.284;2023-06-14T00:25:11;18.50;37.50
67050;DHT22;53955;52.442;13.284;2023-06-14T00:27:38;18.50;37.90
67050;DHT22;53955;52.442;13.284;2023-06-14T00:30:07;18.50;38.00
67050;DHT22;53955;52.442;13.284;2023-06-14T00:32:34;18.70;37.60
67050;DHT22;53955;52.442;13.284;2023-06-14T00:35:00;18.70;37.40
67050;DHT22;53955;52.442;13.284;2023-06-14T00:37:27;18.90;38.00
67050;DHT22;53955;52.442;13.284;2023-06-14T00:39:53;18.50;38.20
67050;DHT22;53955;52.442;13.284;2023-06-14T00:42:24;18.50;38.40
67050;DHT22;53955;52.442;13.284;2023-06-14T00:44:51;18.50;39.20
67050;DHT22;53955;52.442;13.284;2023-06-14T00:47:19;18.50;39.00
67050;DHT22;53955;52.442;13.284;2023-06-14T00:49:47;18.50;39.50
67050;DHT22;53955;52.442;13.284;2023-06-14T00:52:15;18.60;38.50
67050;DHT22;53955;52.442;13.284;2023-06-14T00:54:42;18.70;39.10
67050;DHT22;53955;52.442;13.284;2023-06-14T00:57:09;18.70;39.40
67050;DHT22;53955;52.442;13.284;2023-06-14T00:59:43;18.50;39.10
67050;DHT22;53955;52.442;13.284;2023-06-14T01:02:10;18.60;40.20
67050;DHT22;53955;52.442;13.284;2023-06-14T01:04:39;18.50;40.10
67050;DHT22;53955;52.442;13.284;2023-06-14T01:07:11;18.40;41.20
67050;DHT22;53955;52.442;13.284;2023-06-14T01:09:47;18.50;41.30
67050;DHT22;53955;52.442;13.284;2023-06-14T01:12:21;18.50;40.90
67050;DHT22;53955;52.442;13.284;2023-06-14T01:14:49;18.40;41.10
67050;DHT22;53955;52.442;13.284;2023-06-14T01:17:17;18.40;42.10
67050;DHT22;53955;52.442;13.284;2023-06-14T01:19:45;18.30;42.40
67050;DHT22;53955;52.442;13.284;2023-06-14T01:22:12;18.30;42.60
67050;DHT22;53955;52.442;13.284;2023-06-14T01:24:40;18.40;42.40
67050;DHT22;53955;52.442;13.284;2023-06-14T01:27:10;18.40;42.20
67050;DHT22;53955;52.442;13.284;2023-06-14T01:29:38;18.20;43.60
67050;DHT22;53955;52.442;13.284;2023-06-14T01:32:11;18.30;43.10
67050;DHT22;53955;52.442;13.284;2023-06-14T01:34:38;18.40;43.20
67050;DHT22;53955;52.442;13.284;2023-06-14T01:37:04;18.40;42.70
67050;DHT22;53955;52.442;13.284;2023-06-14T01:39:32;18.40;43.30
67050;DHT22;53955;52.442;13.284;2023-06-14T01:42:00;18.20;43.60
67050;DHT22;53955;52.442;13.284;2023-06-14T01:44:27;18.20;43.80
67050;DHT22;53955;52.442;13.284;2023-06-14T01:46:55;18.20;44.20
67050;DHT22;53955;52.442;13.284;2023-06-14T01:49:21;18.20;43.40
67050;DHT22;53955;52.442;13.284;2023-06-14T01:51:48;18.30;43.70
67050;DHT22;53955;52.442;13.284;2023-06-14T01:54:15;18.10;44.80
67050;DHT22;53955;52.442;13.284;2023-06-14T01:56:41;18.20;44.10
67050;DHT22;53955;52.442;13.284;2023-06-14T01:59:09;18.10;45.70
67050;DHT22;53955;52.442;13.284;2023-06-14T02:01:36;17.80;46.70
67050;DHT22;53955;52.442;13.284;2023-06-14T02:04:02;17.70;46.80
67050;DHT22;53955;52.442;13.284;2023-06-14T02:06:29;17.50;47.80
67050;DHT22;53955;52.442;13.284;2023-06-14T02:08:55;17.60;48.10
67050;DHT22;53955;52.442;13.284;2023-06-14T02:11:22;17.90;47.00
67050;DHT22;53955;52.442;13.284;2023-06-14T02:13:48;18.10;46.90
67050;DHT22;53955;52.442;13.284;2023-06-14T02:16:17;18.30;44.90
67050;DHT22;53955;52.442;13.284;2023-06-14T02:18:43;18.00;46.40
67050;DHT22;53955;52.442;13.284;2023-06-14T02:21:10;18.00;46.70
67050;DHT22;53955;52.442;13.284;2023-06-14T02:23:37;18.00;46.40
67050;DHT22;53955;52.442;13.284;2023-06-14T02:26:03;18.00;46.40
67050;DHT22;53955;52.442;13.284;2023-06-14T02:28:30;17.80;47.10
67050;DHT22;53955;52.442;13.284;2023-06-14T02:30:56;18.00;46.70
67050;DHT22;53955;52.442;13.284;2023-06-14T02:33:24;17.80;47.00
67050;DHT22;53955;52.442;13.284;2023-06-14T02:35:51;18.00;47.60
67050;DHT22;53955;52.442;13.284;2023-06-14T02:38:18;18.00;46.80
67050;DHT22;53955;52.442;13.284;2023-06-14T02:40:44;18.00;46.30
67050;DHT22;53955;52.442;13.284;2023-06-14T02:43:12;18.20;45.30
67050;DHT22;53955;52.442;13.284;2023-06-14T02:45:38;18.10;46.70
67050;DHT22;53955;52.442;13.284;2023-06-14T02:48:05;18.00;47.10
67050;DHT22;53955;52.442;13.284;2023-06-14T02:50:33;18.10;47.60
67050;DHT22;53955;52.442;13.284;2023-06-14T02:53:00;17.80;47.50
67050;DHT22;53955;52.442;13.284;2023-06-14T02:55:28;17.80;47.70
67050;DHT22;53955;52.442;13.284;2023-06-14T02:57:54;17.90;47.30
67050;DHT22;53955;52.442;13.284;2023-06-14T03:00:21;17.70;48.10
67050;DHT22;53955;52.442;13.284;2023-06-14T03:02:48;17.70;48.30
67050;DHT22;53955;52.442;13.284;2023-06-14T03:05:16;17.80;48.50
67050;DHT22;53955;52.442;13.284;2023-06-14T03:07:47;17.80;47.30
67050;DHT22;53955;52.442;13.284;2023-06-14T03:10:16;17.80;48.00
67050;DHT22;53955;52.442;13.284;2023-06-14T03:12:42;17.80;48.10
67050;DHT22;53955;52.442;13.284;2023-06-14T03:15:10;17.80;48.50
67050;DHT22;53955;52.442;13.284;2023-06-14T03:17:38;17.80;48.40
67050;DHT22;53955;52.442;13.284;2023-06-14T03:20:06;17.80;49.00
67050;DHT22;53955;52.442;13.284;2023-06-14T03:22:33;17.80;48.90
67050;DHT22;53955;52.442;13.284;2023-06-14T03:25:01;17.80;48.50
67050;DHT22;53955;52.442;13.284;2023-06-14T03:27:29;17.90;48.20
67050;DHT22;53955;52.442;13.284;2023-06-14T03:29:56;17.80;48.70
67050;DHT22;53955;52.442;13.284;2023-06-14T03:32:22;17.90;48.30
67050;DHT22;53955;52.442;13.284;2023-06-14T03:34:49;18.00;48.30
67050;DHT22;53955;52.442;13.284;2023-06-14T03:37:16;18.20;46.80
67050;DHT22;53955;52.442;13.284;2023-06-14T03:39:43;18.20;46.50
67050;DHT22;53955;52.442;13.284;2023-06-14T03:42:13;18.20;46.70
67050;DHT22;53955;52.442;13.284;2023-06-14T03:44:40;18.20;47.00
67050;DHT22;53955;52.442;13.284;2023-06-14T03:47:07;18.20;46.80
67050;DHT22;53955;52.442;13.284;2023-06-14T03:49:34;18.10;48.20
67050;DHT22;53955;52.442;13.284;2023-06-14T03:52:00;18.10;48.20
67050;DHT22;53955;52.442;13.284;2023-06-14T03:54:27;18.30;46.80
67050;DHT22;53955;52.442;13.284;2023-06-14T03:56:55;18.20;46.60
67050;DHT22;53955;52.442;13.284;2023-06-14T03:59:23;18.20;46.90
67050;DHT22;53955;52.442;13.284;2023-06-14T04:01:51;18.20;46.90
67050;DHT22;53955;52.442;13.284;2023-06-14T04:04:18;18.30;46.70
67050;DHT22;53955;52.442;13.284;2023-06-14T04:06:46;18.40;46.40
67050;DHT22;53955;52.442;13.284;2023-06-14T04:09:13;18.40;46.40
67050;DHT22;53955;52.442;13.284;2023-06-14T04:11:40;18.40;46.90
67050;DHT22;53955;52.442;13.284;2023-06-14T04:14:06;18.50;47.10
67050;DHT22;53955;52.442;13.284;2023-06-14T04:16:34;18.50;46.20
67050;DHT22;53955;52.442;13.284;2023-06-14T04:19:01;18.60;46.70
67050;DHT22;53955;52.442;13.284;2023-06-14T04:21:27;18.70;46.60
67050;DHT22;53955;52.442;13.284;2023-06-14T04:23:54;18.80;45.90
67050;DHT22;53955;52.442;13.284;2023-06-14T04:26:22;19.10;45.30
67050;DHT22;53955;52.442;13.284;2023-06-14T04:28:54;19.20;44.10
67050;DHT22;53955;52.442;13.284;2023-06-14T04:31:22;19.10;44.60
67050;DHT22;53955;52.442;13.284;2023-06-14T04:33:51;18.90;45.30
67050;DHT22;53955;52.442;13.284;2023-06-14T04:36:19;19.00;45.20
67050;DHT22;53955;52.442;13.284;2023-06-14T04:38:46;19.30;43.80
67050;DHT22;53955;52.442;13.284;2023-06-14T04:41:14;19.30;44.20
67050;DHT22;53955;52.442;13.284;2023-06-14T04:43:41;19.40;43.50
67050;DHT22;53955;52.442;13.284;2023-06-14T04:46:08;19.50;43.50
67050;DHT22;53955;52.442;13.284;2023-06-14T04:48:36;19.80;42.70
67050;DHT22;53955;52.442;13.284;2023-06-14T04:51:07;20.40;41.80
67050;DHT22;53955;52.442;13.284;2023-06-14T04:53:34;20.70;40.40
67050;DHT22;53955;52.442;13.284;2023-06-14T04:56:01;22.10;36.40
67050;DHT22;53955;52.442;13.284;2023-06-14T04:58:28;24.30;30.40
67050;DHT22;53955;52.442;13.284;2023-06-14T05:00:55;26.50;25.10
67050;DHT22;53955;52.442;13.284;2023-06-14T05:03:22;28.20;22.80
67050;DHT22;53955;52.442;13.284;2023-06-14T05:05:49;29.20;20.90
67050;DHT22;53955;52.442;13.284;2023-06-14T05:08:17;30.70;19.30
67050;DHT22;53955;52.442;13.284;2023-06-14T05:10:43;30.70;18.30
67050;DHT22;53955;52.442;13.284;2023-06-14T05:13:10;31.10;18.30
67050;DHT22;53955;52.442;13.284;2023-06-14T05:15:36;31.40;16.80
67050;DHT22;53955;52.442;13.284;2023-06-14T05:18:03;31.70;16.70
67050;DHT22;53955;52.442;13.284;2023-06-14T05:20:29;32.10;16.00
67050;DHT22;53955;52.442;13.284;2023-06-14T05:22:56;30.60;17.60
67050;DHT22;53955;52.442;13.284;2023-06-14T05:25:24;28.30;19.40
67050;DHT22;53955;52.442;13.284;2023-06-14T05:27:51;26.20;23.50
67050;DHT22;53955;52.442;13.284;2023-06-14T05:30:17;25.00;25.00
67050;DHT22;53955;52.442;13.284;2023-06-14T05:32:44;23.80;27.20
67050;DHT22;53955;52.442;13.284;2023-06-14T05:35:11;23.10;29.20
67050;DHT22;53955;52.442;13.284;2023-06-14T05:37:37;22.50;30.50
67050;DHT22;53955;52.442;13.284;2023-06-14T05:40:05;21.90;31.50
67050;DHT22;53955;52.442;13.284;2023-06-14T05:42:33;21.60;32.80
67050;DHT22;53955;52.442;13.284;2023-06-14T05:45:00;21.60;33.40
67050;DHT22;53955;52.442;13.284;2023-06-14T05:47:26;21.60;32.70
67050;DHT22;53955;52.442;13.284;2023-06-14T05:49:53;21.30;33.10
67050;DHT22;53955;52.442;13.284;2023-06-14T05:52:20;21.10;33.50
67050;DHT22;53955;52.442;13.284;2023-06-14T05:54:47;20.60;34.90
67050;DHT22;53955;52.442;13.284;2023-06-14T05:57:14;20.30;36.00
67050;DHT22;53955;52.442;13.284;2023-06-14T05:59:42;20.40;35.90
67050;DHT22;53955;52.442;13.284;2023-06-14T06:02:08;20.50;36.00
67050;DHT22;53955;52.442;13.284;2023-06-14T06:04:35;20.60;36.20
67050;DHT22;53955;52.442;13.284;2023-06-14T06:07:02;20.50;36.80
67050;DHT22;53955;52.442;13.284;2023-06-14T06:09:29;20.30;37.30
67050;DHT22;53955;52.442;13.284;2023-06-14T06:11:55;20.20;37.50
67050;DHT22;53955;52.442;13.284;2023-06-14T06:14:22;20.20;38.10
67050;DHT22;53955;52.442;13.284;2023-06-14T06:16:50;20.30;38.10
67050;DHT22;53955;52.442;13.284;2023-06-14T06:19:18;20.50;38.70
67050;DHT22;53955;52.442;13.284;2023-06-14T06:21:44;20.50;37.40
67050;DHT22;53955;52.442;13.284;2023-06-14T06:24:11;20.70;37.50
67050;DHT22;53955;52.442;13.284;2023-06-14T06:26:37;20.70;37.40
67050;DHT22;53955;52.442;13.284;2023-06-14T06:29:05;20.70;37.30
67050;DHT22;53955;52.442;13.284;2023-06-14T06:31:31;20.70;36.80
67050;DHT22;53955;52.442;13.284;2023-06-14T06:33:59;20.70;37.40
67050;DHT22;53955;52.442;13.284;2023-06-14T06:36:26;20.80;37.90
67050;DHT22;53955;52.442;13.284;2023-06-14T06:38:53;20.70;37.90
67050;DHT22;53955;52.442;13.284;2023-06-14T06:41:19;20.50;38.60
67050;DHT22;53955;52.442;13.284;2023-06-14T06:43:46;20.50;38.40
67050;DHT22;53955;52.442;13.284;2023-06-14T06:46:12;20.50;39.10
67050;DHT22;53955;52.442;13.284;2023-06-14T06:48:39;20.20;39.10
67050;DHT22;53955;52.442;13.284;2023-06-14T06:51:07;20.30;39.40
67050;DHT22;53955;52.442;13.284;2023-06-14T06:53:33;20.30;39.50
67050;DHT22;53955;52.442;13.284;2023-06-14T06:56:00;20.40;39.90
67050;DHT22;53955;52.442;13.284;2023-06-14T06:58:26;20.50;39.70
67050;DHT22;53955;52.442;13.284;2023-06-14T07:00:53;20.50;39.20
67050;DHT22;53955;52.442;13.284;2023-06-14T07:03:19;20.80;38.90
67050;DHT22;53955;52.442;13.284;2023-06-14T07:05:46;20.90;37.20
67050;DHT22;53955;52.442;13.284;2023-06-14T07:08:14;21.00;37.50
67050;DHT22;53955;52.442;13.284;2023-06-14T07:10:40;21.00;36.70
67050;DHT22;53955;52.442;13.284;2023-06-14T07:13:07;21.00;37.60
67050;DHT22;53955;52.442;13.284;2023-06-14T07:15:33;21.10;38.50
67050;DHT22;53955;52.442;13.284;2023-06-14T07:18:00;21.30;37.80
67050;DHT22;53955;52.442;13.284;2023-06-14T07:20:27;21.50;37.70
67050;DHT22;53955;52.442;13.284;2023-06-14T07:22:53;21.70;36.60
67050;DHT22;53955;52.442;13.284;2023-06-14T07:25:21;21.80;36.40
67050;DHT22;53955;52.442;13.284;2023-06-14T07:27:48;22.00;36.10
67050;DHT22;53955;52.442;13.284;2023-06-14T07:30:15;22.10;36.00
67050;DHT22;53955;52.442;13.284;2023-06-14T07:32:41;22.30;35.50
67050;DHT22;53955;52.442;13.284;2023-06-14T07:35:08;22.40;34.10
67050;DHT22;53955;52.442;13.284;2023-06-14T07:37:35;22.50;34.80
67050;DHT22;53955;52.442;13.284;2023-06-14T07:40:02;22.60;35.20
67050;DHT22;53955;52.442;13.284;2023-06-14T07:42:33;22.90;34.00
67050;DHT22;53955;52.442;13.284;2023-06-14T07:45:00;23.30;33.60
67050;DHT22;53955;52.442;13.284;2023-06-14T07:47:26;23.60;33.10
67050;DHT22;53955;52.442;13.284;2023-06-14T07:49:53;23.80;31.30
67050;DHT22;53955;52.442;13.284;2023-06-14T07:52:19;23.70;31.30
67050;DHT22;53955;52.442;13.284;2023-06-14T07:54:46;23.60;32.00
67050;DHT22;53955;52.442;13.284;2023-06-14T07:57:13;23.30;31.90
67050;DHT22;53955;52.442;13.284;2023-06-14T07:59:40;23.30;32.90
67050;DHT22;53955;52.442;13.284;2023-06-14T08:02:07;23.10;33.00
67050;DHT22;53955;52.442;13.284;2023-06-14T08:04:33;23.00;33.30
67050;DHT22;53955;52.442;13.284;2023-06-14T08:07:00;23.00;34.20
67050;DHT22;53955;52.442;13.284;2023-06-14T08:09:27;22.80;33.80
67050;DHT22;53955;52.442;13.284;2023-06-14T08:11:55;22.80;33.80
67050;DHT22;53955;52.442;13.284;2023-06-14T08:14:21;22.90;33.90
67050;DHT22;53955;52.442;13.284;2023-06-14T08:16:49;22.90;34.30
67050;DHT22;53955;52.442;13.284;2023-06-14T08:19:16;22.70;34.10
67050;DHT22;53955;52.442;13.284;2023-06-14T08:21:43;22.60;33.80
67050;DHT22;53955;52.442;13.284;2023-06-14T08:24:11;22.60;34.30
67050;DHT22;53955;52.442;13.284;2023-06-14T08:26:37;22.50;34.40
67050;DHT22;53955;52.442;13.284;2023-06-14T08:29:04;22.60;34.60
67050;DHT22;53955;52.442;13.284;2023-06-14T08:31:32;22.70;34.30
67050;DHT22;53955;52.442;13.284;2023-06-14T08:34:00;22.80;33.90
67050;DHT22;53955;52.442;13.284;2023-06-14T08:36:26;22.80;33.50
67050;DHT22;53955;52.442;13.284;2023-06-14T08:38:53;22.80;34.50
67050;DHT22;53955;52.442;13.284;2023-06-14T08:41:21;22.80;34.00
67050;DHT22;53955;52.442;13.284;2023-06-14T08:43:48;22.90;34.00
67050;DHT22;53955;52.442;13.284;2023-06-14T08:46:17;23.10;33.80
67050;DHT22;53955;52.442;13.284;2023-06-14T08:48:46;23.10;33.40
67050;DHT22;53955;52.442;13.284;2023-06-14T08:51:15;23.10;32.40
67050;DHT22;53955;52.442;13.284;2023-06-14T08:53:44;22.90;31.90
67050;DHT22;53955;52.442;13.284;2023-06-14T08:56:11;22.90;33.00
67050;DHT22;53955;52.442;13.284;2023-06-14T08:58:40;23.00;32.60
67050;DHT22;53955;52.442;13.284;2023-06-14T09:01:09;23.00;32.60
67050;DHT22;53955;52.442;13.284;2023-06-14T09:03:37;23.10;32.60
67050;DHT22;53955;52.442;13.284;2023-06-14T09:06:06;23.20;30.60
67050;DHT22;53955;52.442;13.284;2023-06-14T09:08:35;23.10;31.70
67050;DHT22;53955;52.442;13.284;2023-06-14T09:11:02;23.30;31.60
67050;DHT22;53955;52.442;13.284;2023-06-14T09:13:28;23.30;31.00
67050;DHT22;53955;52.442;13.284;2023-06-14T09:15:55;23.40;30.30
67050;DHT22;53955;52.442;13.284;2023-06-14T09:18:21;23.40;30.90
67050;DHT22;53955;52.442;13.284;2023-06-14T09:20:48;23.70;30.10
67050;DHT22;53955;52.442;13.284;2023-06-14T09:23:20;23.80;28.70
67050;DHT22;53955;52.442;13.284;2023-06-14T09:25:48;23.60;30.20
67050;DHT22;53955;52.442;13.284;2023-06-14T09:28:16;23.60;29.80
67050;DHT22;53955;52.442;13.284;2023-06-14T09:30:43;23.70;30.00
67050;DHT22;53955;52.442;13.284;2023-06-14T09:33:09;23.60;28.90
67050;DHT22;53955;52.442;13.284;2023-06-14T09:35:36;23.50;30.20
67050;DHT22;53955;52.442;13.284;2023-06-14T09:38:03;23.60;30.80
67050;DHT22;53955;52.442;13.284;2023-06-14T09:40:34;23.40;31.80
67050;DHT22;53955;52.442;13.284;2023-06-14T09:43:05;23.60;30.60
67050;DHT22;53955;52.442;13.284;2023-06-14T09:45:32;23.70;30.40
67050;DHT22;53955;52.442;13.284;2023-06-14T09:47:59;23.80;30.00
67050;DHT22;53955;52.442;13.284;2023-06-14T09:50:26;23.70;30.00
67050;DHT22;53955;52.442;13.284;2023-06-14T09:52:59;24.00;30.00
67050;DHT22;53955;52.442;13.284;2023-06-14T09:55:31;23.90;29.20
67050;DHT22;53955;52.442;13.284;2023-06-14T09:58:00;24.00;29.30
67050;DHT22;53955;52.442;13.284;2023-06-14T10:00:31;24.00;29.20
67050;DHT22;53955;52.442;13.284;2023-06-14T10:03:03;24.00;28.70
67050;DHT22;53955;52.442;13.284;2023-06-14T10:05:30;24.00;28.30
67050;DHT22;53955;52.442;13.284;2023-06-14T10:08:00;23.90;27.50
67050;DHT22;53955;52.442;13.284;2023-06-14T10:10:30;23.80;28.20
67050;DHT22;53955;52.442;13.284;2023-06-14T10:12:57;23.80;28.30
67050;DHT22;53955;52.442;13.284;2023-06-14T10:15:30;23.90;28.10
67050;DHT22;53955;52.442;13.284;2023-06-14T10:18:01;23.70;28.40
67050;DHT22;53955;52.442;13.284;2023-06-14T10:20:30;23.70;28.20
67050;DHT22;53955;52.442;13.284;2023-06-14T10:23:03;23.90;29.30
67050;DHT22;53955;52.442;13.284;2023-06-14T10:25:31;24.10;28.90
67050;DHT22;53955;52.442;13.284;2023-06-14T10:28:03;24.00;28.40
67050;DHT22;53955;52.442;13.284;2023-06-14T10:30:40;24.10;28.40
67050;DHT22;53955;52.442;13.284;2023-06-14T10:33:28;24.00;27.60
67050;DHT22;53955;52.442;13.284;2023-06-14T10:36:10;24.00;27.90
67050;DHT22;53955;52.442;13.284;2023-06-14T10:38:37;23.90;28.50
67050;DHT22;53955;52.442;13.284;2023-06-14T10:41:05;24.00;27.90
67050;DHT22;53955;52.442;13.284;2023-06-14T10:43:31;23.90;28.50
67050;DHT22;53955;52.442;13.284;2023-06-14T10:46:18;23.90;28.30
67050;DHT22;53955;52.442;13.284;2023-06-14T10:48:57;23.90;29.10
67050;DHT22;53955;52.442;13.284;2023-06-14T10:51:24;23.90;28.30
67050;DHT22;53955;52.442;13.284;2023-06-14T10:53:51;23.90;27.90
67050;DHT22;53955;52.442;13.284;2023-06-14T10:56:27;23.80;27.60
67050;DHT22;53955;52.442;13.284;2023-06-14T10:58:54;23.90;27.50
67050;DHT22;53955;52.442;13.284;2023-06-14T11:01:31;24.00;27.10
67050;DHT22;53955;52.442;13.284;2023-06-14T11:04:07;23.60;28.50
67050;DHT22;53955;52.442;13.284;2023-06-14T11:06:47;23.70;27.90
67050;DHT22;53955;52.442;13.284;2023-06-14T11:09:42;23.90;27.50
67050;DHT22;53955;52.442;13.284;2023-06-14T11:12:15;23.90;28.40
67050;DHT22;53955;52.442;13.284;2023-06-14T11:14:41;23.70;28.10
67050;DHT22;53955;52.442;13.284;2023-06-14T11:17:08;23.60;28.50
67050;DHT22;53955;52.442;13.284;2023-06-14T11:19:36;23.60;28.70
67050;DHT22;53955;52.442;13.284;2023-06-14T11:22:03;23.50;28.20
67050;DHT22;53955;52.442;13.284;2023-06-14T11:24:31;23.60;28.00
67050;DHT22;53955;52.442;13.284;2023-06-14T11:26:58;23.80;27.80
67050;DHT22;53955;52.442;13.284;2023-06-14T11:29:25;24.00;27.70
67050;DHT22;53955;52.442;13.284;2023-06-14T11:31:51;24.30;27.10
67050;DHT22;53955;52.442;13.284;2023-06-14T11:34:18;24.40;26.80
67050;DHT22;53955;52.442;13.284;2023-06-14T11:36:46;24.60;26.20
67050;DHT22;53955;52.442;13.284;2023-06-14T11:39:13;24.60;26.00
67050;DHT22;53955;52.442;13.284;2023-06-14T11:41:41;24.80;25.70
67050;DHT22;53955;52.442;13.284;2023-06-14T11:44:09;24.90;25.70
67050;DHT22;53955;52.442;13.284;2023-06-14T11:46:35;24.90;25.20
67050;DHT22;53955;52.442;13.284;2023-06-14T11:49:02;25.00;25.00
67050;DHT22;53955;52.442;13.284;2023-06-14T11:51:30;25.30;25.10
67050;DHT22;53955;52.442;13.284;2023-06-14T11:53:58;25.30;25.00
67050;DHT22;53955;52.442;13.284;2023-06-14T11:56:25;25.60;24.20
67050;DHT22;53955;52.442;13.284;2023-06-14T11:58:52;25.50;24.00
67050;DHT22;53955;52.442;13.284;2023-06-14T12:01:21;25.20;24.10
67050;DHT22;53955;52.442;13.284;2023-06-14T12:03:49;25.20;23.60
67050;DHT22;53955;52.442;13.284;2023-06-14T12:06:15;25.10;23.90
67050;DHT22;53955;52.442;13.284;2023-06-14T12:08:44;25.00;24.30
67050;DHT22;53955;52.442;13.284;2023-06-14T12:11:12;25.00;24.30
67050;DHT22;53955;52.442;13.284;2023-06-14T12:13:39;24.90;22.80
67050;DHT22;53955;52.442;13.284;2023-06-14T12:16:07;24.90;23.20
67050;DHT22;53955;52.442;13.284;2023-06-14T12:18:34;24.50;22.40
67050;DHT22;53955;52.442;13.284;2023-06-14T12:21:01;24.40;23.70
67050;DHT22;53955;52.442;13.284;2023-06-14T12:23:44;24.50;23.60
67050;DHT22;53955;52.442;13.284;2023-06-14T12:26:13;24.70;23.50
67050;DHT22;53955;52.442;13.284;2023-06-14T12:28:40;24.60;22.50
67050;DHT22;53955;52.442;13.284;2023-06-14T12:31:07;24.60;23.70
67050;DHT22;53955;52.442;13.284;2023-06-14T12:33:34;24.70;23.90
67050;DHT22;53955;52.442;13.284;2023-06-14T12:36:02;24.70;22.70
67050;DHT22;53955;52.442;13.284;2023-06-14T12:38:29;24.70;23.70
67050;DHT22;53955;52.442;13.284;2023-06-14T12:40:55;25.00;24.10
67050;DHT22;53955;52.442;13.284;2023-06-14T12:43:24;25.30;22.70
67050;DHT22;53955;52.442;13.284;2023-06-14T12:45:50;25.20;21.80
67050;DHT22;53955;52.442;13.284;2023-06-14T12:48:17;25.00;22.70
67050;DHT22;53955;52.442;13.284;2023-06-14T12:50:44;24.90;22.70
67050;DHT22;53955;52.442;13.284;2023-06-14T12:53:11;24.60;22.70
67050;DHT22;53955;52.442;13.284;2023-06-14T12:55:37;24.90;23.20
67050;DHT22;53955;52.442;13.284;2023-06-14T12:58:04;25.10;21.60
67050;DHT22;53955;52.442;13.284;2023-06-14T13:00:32;24.90;21.60
67050;DHT22;53955;52.442;13.284;2023-06-14T13:02:58;25.20;20.80
67050;DHT22;53955;52.442;13.284;2023-06-14T13:05:25;25.40;21.60
67050;DHT22;53955;52.442;13.284;2023-06-14T13:07:51;25.60;22.20
67050;DHT22;53955;52.442;13.284;2023-06-14T13:10:18;25.70;22.10
67050;DHT22;53955;52.442;13.284;2023-06-14T13:12:45;25.50;20.30
67050;DHT22;53955;52.442;13.284;2023-06-14T13:15:11;25.30;20.40
67050;DHT22;53955;52.442;13.284;2023-06-14T13:17:39;25.60;20.40
67050;DHT22;53955;52.442;13.284;2023-06-14T13:20:07;25.70;20.00
67050;DHT22;53955;52.442;13.284;2023-06-14T13:22:35;25.60;20.30
67050;DHT22;53955;52.442;13.284;2023-06-14T13:25:02;25.30;20.80
67050;DHT22;53955;52.442;13.284;2023-06-14T13:27:28;25.10;20.60
67050;DHT22;53955;52.442;13.284;2023-06-14T13:29:55;25.10;21.20
67050;DHT22;53955;52.442;13.284;2023-06-14T13:32:22;25.30;20.60
67050;DHT22;53955;52.442;13.284;2023-06-14T13:34:50;25.60;20.50
67050;DHT22;53955;52.442;13.284;2023-06-14T13:37:17;25.80;19.40
67050;DHT22;53955;52.442;13.284;2023-06-14T13:39:43;25.80;19.40
67050;DHT22;53955;52.442;13.284;2023-06-14T13:42:10;25.90;18.90
67050;DHT22;53955;52.442;13.284;2023-06-14T13:44:37;26.00;19.00
67050;DHT22;53955;52.442;13.284;2023-06-14T13:47:04;26.00;17.70
67050;DHT22;53955;52.442;13.284;2023-06-14T13:49:30;26.10;17.90
67050;DHT22;53955;52.442;13.284;2023-06-14T13:51:58;26.30;18.00
67050;DHT22;53955;52.442;13.284;2023-06-14T13:54:26;26.40;16.30
67050;DHT22;53955;52.442;13.284;2023-06-14T13:56:53;26.40;16.30
67050;DHT22;53955;52.442;13.284;2023-06-14T13:59:19;26.60;16.90
67050;DHT22;53955;52.442;13.284;2023-06-14T14:01:47;26.50;16.40
67050;DHT22;53955;52.442;13.284;2023-06-14T14:04:14;26.60;16.40
67050;DHT22;53955;52.442;13.284;2023-06-14T14:06:40;26.40;16.70
67050;DHT22;53955;52.442;13.284;2023-06-14T14:09:08;26.50;15.90
67050;DHT22;53955;52.442;13.284;2023-06-14T14:11:35;26.20;16.40
67050;DHT22;53955;52.442;13.284;2023-06-14T14:14:02;26.30;16.20
67050;DHT22;53955;52.442;13.284;2023-06-14T14:16:29;26.10;16.30
67050;DHT22;53955;52.442;13.284;2023-06-14T14:18:56;25.80;16.20
67050;DHT22;53955;52.442;13.284;2023-06-14T14:21:23;26.00;16.70
67050;DHT22;53955;52.442;13.284;2023-06-14T14:23:50;26.00;17.00
67050;DHT22;53955;52.442;13.284;2023-06-14T14:26:18;25.80;16.40
67050;DHT22;53955;52.442;13.284;2023-06-14T14:28:46;25.90;17.60
67050;DHT22;53955;52.442;13.284;2023-06-14T14:31:12;25.90;15.40
67050;DHT22;53955;52.442;13.284;2023-06-14T14:33:39;25.80;16.30
67050;DHT22;53955;52.442;13.284;2023-06-14T14:36:06;25.50;16.40
67050;DHT22;53955;52.442;13.284;2023-06-14T14:38:33;25.40;16.40
67050;DHT22;53955;52.442;13.284;2023-06-14T14:40:59;25.50;16.20
67050;DHT22;53955;52.442;13.284;2023-06-14T14:43:27;25.40;16.50
67050;DHT22;53955;52.442;13.284;2023-06-14T14:45:56;25.20;16.30
67050;DHT22;53955;52.442;13.284;2023-06-14T14:48:22;25.20;16.90
67050;DHT22;53955;52.442;13.284;2023-06-14T14:50:49;25.30;17.60
67050;DHT22;53955;52.442;13.284;2023-06-14T14:53:15;25.30;17.70
67050;DHT22;53955;52.442;13.284;2023-06-14T14:55:42;25.40;17.20
67050;DHT22;53955;52.442;13.284;2023-06-14T14:58:09;25.40;17.30
67050;DHT22;53955;52.442;13.284;2023-06-14T15:00:37;25.60;17.40
67050;DHT22;53955;52.442;13.284;2023-06-14T15:03:03;25.60;16.50
67050;DHT22;53955;52.442;13.284;2023-06-14T15:05:30;25.60;17.60
67050;DHT22;53955;52.442;13.284;2023-06-14T15:07:56;25.70;17.60
67050;DHT22;53955;52.442;13.284;2023-06-14T15:10:23;25.80;17.80
67050;DHT22;53955;52.442;13.284;2023-06-14T15:12:49;25.80;17.40
67050;DHT22;53955;52.442;13.284;2023-06-14T15:15:16;25.70;17.50
67050;DHT22;53955;52.442;13.284;2023-06-14T15:17:44;25.50;17.80